sensor_id;sensor_type;location;lat;lon;timestamp;P1;durP1;ratioP1;P2;durP2;ratioP2
9834;SDS011;69850;50.942;13.748;2023-06-22T00:00:30;16.80;;;14.30;;
9834;SDS011;69850;50.942;13.748;2023-06-22T00:03:51;19.27;;;15.15;;
9834;SDS011;69850;50.942;13.748;2023-06-22T00:07:11;19.10;;;14.63;;
9834;SDS011;69850;50.942;13.748;2023-06-22T00:10:32;17.20;;;15.35;;
9834;SDS011;69850;50.942;13.748;2023-06-22T00:13:52;18.83;;;15.40;;
9834;SDS011;69850;50.942;13.748;2023-06-22T00:17:13;22.80;;;15.88;;
9834;SDS011;69850;50.942;13.748;2023-06-22T00:20:33;17.90;;;14.82;;
9834;SDS011;69850;50.942;13.748;2023-06-22T00:23:57;17.85;;;15.57;;
9834;SDS011;69850;50.942;13.748;2023-06-22T00:27:18;18.35;;;15.15;;
9834;SDS011;69850;50.942;13.748;2023-06-22T00:30:38;18.70;;;15.32;;
9834;SDS011;69850;50.942;13.748;2023-06-22T00:33:59;21.20;;;15.52;;
9834;SDS011;69850;50.942;13.748;2023-06-22T00:37:20;19.58;;;15.95;;
9834;SDS011;69850;50.942;13.748;2023-06-22T00:40:47;20.25;;;16.10;;
9834;SDS011;69850;50.942;13.748;2023-06-22T00:44:08;17.83;;;15.32;;
9834;SDS011;69850;50.942;13.748;2023-06-22T00:47:29;19.27;;;15.57;;
9834;SDS011;69850;50.942;13.748;2023-06-22T00:50:49;17.58;;;13.98;;
9834;SDS011;69850;50.942;13.748;2023-06-22T00:54:11;18.90;;;14.80;;
9834;SDS011;69850;50.942;13.748;2023-06-22T00:57:33;17.38;;;14.80;;
9834;SDS011;69850;50.942;13.748;2023-06-22T01:00:57;18.58;;;14.80;;
9834;SDS011;69850;50.942;13.748;2023-06-22T01:04:24;18.00;;;14.88;;
9834;SDS011;69850;50.942;13.748;2023-06-22T01:11:41;18.20;;;15.63;;
9834;SDS011;69850;50.942;13.748;2023-06-22T01:15:10;18.77;;;16.40;;
9834;SDS011;69850;50.942;13.748;2023-06-22T01:18:34;20.70;;;16.25;;
9834;SDS011;69850;50.942;13.748;2023-06-22T01:21:57;21.02;;;16.50;;
9834;SDS011;69850;50.942;13.748;2023-06-22T01:25:26;17.42;;;14.23;;
9834;SDS011;69850;50.942;13.748;2023-06-22T01:28:53;19.73;;;15.98;;
9834;SDS011;69850;50.942;13.748;2023-06-22T01:32:14;17.63;;;14.82;;
9834;SDS011;69850;50.942;13.748;2023-06-22T01:35:35;17.67;;;14.63;;
9834;SDS011;69850;50.942;13.748;2023-06-22T01:38:56;18.83;;;14.32;;
9834;SDS011;69850;50.942;13.748;2023-06-22T01:42:17;17.02;;;14.50;;
9834;SDS011;69850;50.942;13.748;2023-06-22T01:45:38;21.52;;;15.77;;
9834;SDS011;69850;50.942;13.748;2023-06-22T01:48:59;22.60;;;15.43;;
9834;SDS011;69850;50.942;13.748;2023-06-22T01:52:20;22.08;;;15.23;;
9834;SDS011;69850;50.942;13.748;2023-06-22T01:55:43;19.67;;;14.98;;
9834;SDS011;69850;50.942;13.748;2023-06-22T02:02:24;17.55;;;14.55;;
9834;SDS011;69850;50.942;13.748;2023-06-22T02:05:51;18.17;;;14.35;;
9834;SDS011;69850;50.942;13.748;2023-06-22T02:09:22;18.58;;;15.00;;
9834;SDS011;69850;50.942;13.748;2023-06-22T02:12:43;17.90;;;14.45;;
9834;SDS011;69850;50.942;13.748;2023-06-22T02:16:04;19.35;;;13.90;;
9834;SDS011;69850;50.942;13.748;2023-06-22T02:19:27;18.80;;;14.32;;
9834;SDS011;69850;50.942;13.748;2023-06-22T02:22:47;19.15;;;15.55;;
9834;SDS011;69850;50.942;13.748;2023-06-22T02:26:08;22.90;;;15.70;;
9834;SDS011;69850;50.942;13.748;2023-06-22T02:29:29;21.77;;;14.88;;
9834;SDS011;69850;50.942;13.748;2023-06-22T02:32:49;23.13;;;15.65;;
9834;SDS011;69850;50.942;13.748;2023-06-22T02:36:17;22.15;;;15.45;;
9834;SDS011;69850;50.942;13.748;2023-06-22T02:39:42;20.85;;;15.40;;
9834;SDS011;69850;50.942;13.748;2023-06-22T02:43:02;21.73;;;15.27;;
9834;SDS011;69850;50.942;13.748;2023-06-22T02:46:23;21.00;;;16.10;;
9834;SDS011;69850;50.942;13.748;2023-06-22T02:49:44;21.33;;;16.98;;
9834;SDS011;69850;50.942;13.748;2023-06-22T02:53:06;27.10;;;16.30;;
9834;SDS011;69850;50.942;13.748;2023-06-22T02:56:30;19.85;;;15.68;;
9834;SDS011;69850;50.942;13.748;2023-06-22T02:59:54;19.65;;;15.20;;
9834;SDS011;69850;50.942;13.748;2023-06-22T03:03:15;18.23;;;15.98;;
9834;SDS011;69850;50.942;13.748;2023-06-22T03:06:36;24.48;;;16.25;;
9834;SDS011;69850;50.942;13.748;2023-06-22T03:09:56;23.15;;;14.80;;
9834;SDS011;69850;50.942;13.748;2023-06-22T03:13:17;21.38;;;15.32;;
9834;SDS011;69850;50.942;13.748;2023-06-22T03:16:38;22.45;;;15.38;;
9834;SDS011;69850;50.942;13.748;2023-06-22T03:20:04;20.95;;;16.00;;
9834;SDS011;69850;50.942;13.748;2023-06-22T03:23:29;21.90;;;14.85;;
9834;SDS011;69850;50.942;13.748;2023-06-22T03:26:50;19.40;;;14.27;;
9834;SDS011;69850;50.942;13.748;2023-06-22T03:30:11;17.55;;;13.35;;
9834;SDS011;69850;50.942;13.748;2023-06-22T03:33:32;17.45;;;13.63;;
9834;SDS011;69850;50.942;13.748;2023-06-22T03:36:52;15.27;;;12.40;;
9834;SDS011;69850;50.942;13.748;2023-06-22T03:40:13;14.45;;;11.18;;
9834;SDS011;69850;50.942;13.748;2023-06-22T03:43:34;12.82;;;10.52;;
9834;SDS011;69850;50.942;13.748;2023-06-22T03:46:58;14.65;;;11.10;;
9834;SDS011;69850;50.942;13.748;2023-06-22T03:50:18;16.75;;;10.63;;
9834;SDS011;69850;50.942;13.748;2023-06-22T03:53:40;11.75;;;9.93;;
9834;SDS011;69850;50.942;13.748;2023-06-22T03:57:01;14.55;;;9.98;;
9834;SDS011;69850;50.942;13.748;2023-06-22T04:00:21;16.77;;;10.02;;
9834;SDS011;69850;50.942;13.748;2023-06-22T04:03:42;13.18;;;9.60;;
9834;SDS011;69850;50.942;13.748;2023-06-22T04:07:03;13.35;;;10.00;;
9834;SDS011;69850;50.942;13.748;2023-06-22T04:10:24;11.75;;;9.55;;
9834;SDS011;69850;50.942;13.748;2023-06-22T04:13:44;12.85;;;9.82;;
9834;SDS011;69850;50.942;13.748;2023-06-22T04:17:05;15.18;;;9.13;;
9834;SDS011;69850;50.942;13.748;2023-06-22T04:20:26;14.35;;;9.38;;
9834;SDS011;69850;50.942;13.748;2023-06-22T04:23:46;16.65;;;9.27;;
9834;SDS011;69850;50.942;13.748;2023-06-22T04:27:07;15.68;;;9.00;;
9834;SDS011;69850;50.942;13.748;2023-06-22T04:30:27;12.18;;;9.00;;
9834;SDS011;69850;50.942;13.748;2023-06-22T04:33:49;16.30;;;11.98;;
9834;SDS011;69850;50.942;13.748;2023-06-22T04:37:11;17.05;;;13.95;;
9834;SDS011;69850;50.942;13.748;2023-06-22T04:40:35;16.23;;;13.80;;
9834;SDS011;69850;50.942;13.748;2023-06-22T04:43:56;14.57;;;11.65;;
9834;SDS011;69850;50.942;13.748;2023-06-22T04:47:20;13.82;;;10.05;;
9834;SDS011;69850;50.942;13.748;2023-06-22T04:50:41;14.45;;;10.55;;
9834;SDS011;69850;50.942;13.748;2023-06-22T04:54:02;11.57;;;10.32;;
9834;SDS011;69850;50.942;13.748;2023-06-22T04:57:22;14.90;;;9.65;;
9834;SDS011;69850;50.942;13.748;2023-06-22T05:00:50;12.18;;;10.40;;
9834;SDS011;69850;50.942;13.748;2023-06-22T05:04:12;12.70;;;10.02;;
9834;SDS011;69850;50.942;13.748;2023-06-22T05:07:33;14.52;;;11.23;;
9834;SDS011;69850;50.942;13.748;2023-06-22T05:10:54;13.35;;;10.90;;
9834;SDS011;69850;50.942;13.748;2023-06-22T05:14:14;17.23;;;12.43;;
9834;SDS011;69850;50.942;13.748;2023-06-22T05:17:35;12.35;;;10.80;;
9834;SDS011;69850;50.942;13.748;2023-06-22T05:20:57;14.05;;;10.18;;
9834;SDS011;69850;50.942;13.748;2023-06-22T05:24:18;12.25;;;10.93;;
9834;SDS011;69850;50.942;13.748;2023-06-22T05:27:39;15.25;;;10.80;;
9834;SDS011;69850;50.942;13.748;2023-06-22T05:30:59;14.38;;;10.43;;
9834;SDS011;69850;50.942;13.748;2023-06-22T05:34:20;11.43;;;9.48;;
9834;SDS011;69850;50.942;13.748;2023-06-22T05:37:40;13.93;;;9.60;;
9834;SDS011;69850;50.942;13.748;2023-06-22T05:41:01;11.38;;;8.68;;
9834;SDS011;69850;50.942;13.748;2023-06-22T05:44:22;12.48;;;8.50;;
9834;SDS011;69850;50.942;13.748;2023-06-22T05:47:42;9.55;;;8.65;;
9834;SDS011;69850;50.942;13.748;2023-06-22T05:51:03;10.05;;;8.75;;
9834;SDS011;69850;50.942;13.748;2023-06-22T05:54:24;9.48;;;8.55;;
9834;SDS011;69850;50.942;13.748;2023-06-22T05:57:44;12.65;;;9.02;;
9834;SDS011;69850;50.942;13.748;2023-06-22T06:01:05;11.02;;;8.77;;
9834;SDS011;69850;50.942;13.748;2023-06-22T06:04:26;11.43;;;9.02;;
9834;SDS011;69850;50.942;13.748;2023-06-22T06:07:46;10.02;;;9.02;;
9834;SDS011;69850;50.942;13.748;2023-06-22T06:11:07;10.48;;;9.35;;
9834;SDS011;69850;50.942;13.748;2023-06-22T06:14:27;12.60;;;9.15;;
9834;SDS011;69850;50.942;13.748;2023-06-22T06:17:49;9.60;;;8.60;;
9834;SDS011;69850;50.942;13.748;2023-06-22T06:21:10;9.75;;;8.50;;
9834;SDS011;69850;50.942;13.748;2023-06-22T06:24:30;9.55;;;8.30;;
9834;SDS011;69850;50.942;13.748;2023-06-22T06:27:51;10.05;;;8.95;;
9834;SDS011;69850;50.942;13.748;2023-06-22T06:31:14;10.82;;;8.68;;
9834;SDS011;69850;50.942;13.748;2023-06-22T06:34:37;15.95;;;8.60;;
9834;SDS011;69850;50.942;13.748;2023-06-22T06:37:58;10.60;;;8.05;;
9834;SDS011;69850;50.942;13.748;2023-06-22T06:41:18;12.07;;;8.60;;
9834;SDS011;69850;50.942;13.748;2023-06-22T06:44:39;11.68;;;8.35;;
9834;SDS011;69850;50.942;13.748;2023-06-22T06:48:00;10.00;;;8.82;;
9834;SDS011;69850;50.942;13.748;2023-06-22T06:51:20;9.88;;;8.88;;
9834;SDS011;69850;50.942;13.748;2023-06-22T06:54:41;10.30;;;9.05;;
9834;SDS011;69850;50.942;13.748;2023-06-22T06:58:02;12.07;;;9.02;;
9834;SDS011;69850;50.942;13.748;2023-06-22T07:01:24;10.73;;;9.15;;
9834;SDS011;69850;50.942;13.748;2023-06-22T07:04:45;9.57;;;8.45;;
9834;SDS011;69850;50.942;13.748;2023-06-22T07:08:05;9.73;;;8.73;;
9834;SDS011;69850;50.942;13.748;2023-06-22T07:11:26;11.15;;;8.85;;
9834;SDS011;69850;50.942;13.748;2023-06-22T07:14:47;9.70;;;8.70;;
9834;SDS011;69850;50.942;13.748;2023-06-22T07:18:07;13.30;;;8.77;;
9834;SDS011;69850;50.942;13.748;2023-06-22T07:21:28;9.93;;;8.93;;
9834;SDS011;69850;50.942;13.748;2023-06-22T07:24:48;11.02;;;8.65;;
9834;SDS011;69850;50.942;13.748;2023-06-22T07:28:09;10.27;;;9.20;;
9834;SDS011;69850;50.942;13.748;2023-06-22T07:31:31;12.50;;;9.63;;
9834;SDS011;69850;50.942;13.748;2023-06-22T07:34:52;10.65;;;9.55;;
9834;SDS011;69850;50.942;13.748;2023-06-22T07:38:12;9.35;;;8.43;;
9834;SDS011;69850;50.942;13.748;2023-06-22T07:41:34;9.98;;;9.00;;
9834;SDS011;69850;50.942;13.748;2023-06-22T07:44:55;11.57;;;8.93;;
9834;SDS011;69850;50.942;13.748;2023-06-22T07:48:16;10.90;;;9.60;;
9834;SDS011;69850;50.942;13.748;2023-06-22T07:51:36;10.98;;;9.88;;
9834;SDS011;69850;50.942;13.748;2023-06-22T07:54:57;10.95;;;9.60;;
9834;SDS011;69850;50.942;13.748;2023-06-22T07:58:18;10.82;;;9.13;;
9834;SDS011;69850;50.942;13.748;2023-06-22T08:01:40;12.77;;;9.60;;
9834;SDS011;69850;50.942;13.748;2023-06-22T08:05:01;12.15;;;10.32;;
9834;SDS011;69850;50.942;13.748;2023-06-22T08:08:22;10.43;;;9.43;;
9834;SDS011;69850;50.942;13.748;2023-06-22T08:11:43;12.60;;;9.52;;
9834;SDS011;69850;50.942;13.748;2023-06-22T08:15:04;11.40;;;10.30;;
9834;SDS011;69850;50.942;13.748;2023-06-22T08:18:25;14.60;;;10.68;;
9834;SDS011;69850;50.942;13.748;2023-06-22T08:21:46;11.93;;;10.73;;
9834;SDS011;69850;50.942;13.748;2023-06-22T08:25:07;12.35;;;10.65;;
9834;SDS011;69850;50.942;13.748;2023-06-22T08:28:28;11.63;;;10.45;;
9834;SDS011;69850;50.942;13.748;2023-06-22T08:31:49;14.80;;;10.82;;
9834;SDS011;69850;50.942;13.748;2023-06-22T08:35:09;12.48;;;10.90;;
9834;SDS011;69850;50.942;13.748;2023-06-22T08:38:30;11.27;;;10.15;;
9834;SDS011;69850;50.942;13.748;2023-06-22T08:41:51;12.68;;;11.07;;
9834;SDS011;69850;50.942;13.748;2023-06-22T08:45:11;11.68;;;10.57;;
9834;SDS011;69850;50.942;13.748;2023-06-22T08:48:32;13.48;;;10.57;;
9834;SDS011;69850;50.942;13.748;2023-06-22T08:51:53;12.52;;;11.10;;
9834;SDS011;69850;50.942;13.748;2023-06-22T08:55:16;11.60;;;10.23;;
9834;SDS011;69850;50.942;13.748;2023-06-22T08:58:36;11.25;;;10.05;;
9834;SDS011;69850;50.942;13.748;2023-06-22T09:01:57;13.18;;;10.98;;
9834;SDS011;69850;50.942;13.748;2023-06-22T09:05:18;20.58;;;10.95;;
9834;SDS011;69850;50.942;13.748;2023-06-22T09:08:38;12.45;;;11.00;;
9834;SDS011;69850;50.942;13.748;2023-06-22T09:11:59;10.20;;;9.25;;
9834;SDS011;69850;50.942;13.748;2023-06-22T09:15:19;13.65;;;9.63;;
9834;SDS011;69850;50.942;13.748;2023-06-22T09:18:40;11.20;;;9.63;;
9834;SDS011;69850;50.942;13.748;2023-06-22T09:22:02;11.07;;;9.20;;
9834;SDS011;69850;50.942;13.748;2023-06-22T09:25:23;11.60;;;9.18;;
9834;SDS011;69850;50.942;13.748;2023-06-22T09:28:44;11.70;;;9.15;;
9834;SDS011;69850;50.942;13.748;2023-06-22T09:32:05;10.38;;;9.38;;
9834;SDS011;69850;50.942;13.748;2023-06-22T09:35:26;10.57;;;8.88;;
9834;SDS011;69850;50.942;13.748;2023-06-22T09:38:47;9.90;;;8.93;;
9834;SDS011;69850;50.942;13.748;2023-06-22T09:42:08;10.77;;;9.68;;
9834;SDS011;69850;50.942;13.748;2023-06-22T09:45:29;10.05;;;9.05;;
9834;SDS011;69850;50.942;13.748;2023-06-22T09:48:49;10.27;;;9.18;;
9834;SDS011;69850;50.942;13.748;2023-06-22T09:52:10;10.07;;;9.18;;
9834;SDS011;69850;50.942;13.748;2023-06-22T09:55:31;11.20;;;9.20;;
9834;SDS011;69850;50.942;13.748;2023-06-22T09:58:52;10.90;;;9.48;;
9834;SDS011;69850;50.942;13.748;2023-06-22T10:02:12;11.05;;;9.77;;
9834;SDS011;69850;50.942;13.748;2023-06-22T10:05:33;10.63;;;9.30;;
9834;SDS011;69850;50.942;13.748;2023-06-22T10:08:54;9.85;;;8.88;;
9834;SDS011;69850;50.942;13.748;2023-06-22T10:12:15;10.57;;;9.48;;
9834;SDS011;69850;50.942;13.748;2023-06-22T10:15:35;10.93;;;9.82;;
9834;SDS011;69850;50.942;13.748;2023-06-22T10:18:56;10.50;;;9.48;;
9834;SDS011;69850;50.942;13.748;2023-06-22T10:22:16;11.82;;;9.95;;
9834;SDS011;69850;50.942;13.748;2023-06-22T10:25:38;11.68;;;9.90;;
9834;SDS011;69850;50.942;13.748;2023-06-22T10:28:59;10.90;;;9.80;;
9834;SDS011;69850;50.942;13.748;2023-06-22T10:32:20;14.98;;;10.57;;
9834;SDS011;69850;50.942;13.748;2023-06-22T10:35:40;10.27;;;9.27;;
9834;SDS011;69850;50.942;13.748;2023-06-22T10:39:01;10.75;;;9.65;;
9834;SDS011;69850;50.942;13.748;2023-06-22T10:42:23;12.10;;;10.23;;
9834;SDS011;69850;50.942;13.748;2023-06-22T10:45:43;10.80;;;9.70;;
9834;SDS011;69850;50.942;13.748;2023-06-22T10:49:04;12.23;;;9.70;;
9834;SDS011;69850;50.942;13.748;2023-06-22T10:52:25;13.45;;;10.18;;
9834;SDS011;69850;50.942;13.748;2023-06-22T10:55:45;12.02;;;9.77;;
9834;SDS011;69850;50.942;13.748;2023-06-22T10:59:06;13.60;;;9.57;;
9834;SDS011;69850;50.942;13.748;2023-06-22T11:02:27;10.98;;;9.85;;
9834;SDS011;69850;50.942;13.748;2023-06-22T11:05:49;10.77;;;9.70;;
9834;SDS011;69850;50.942;13.748;2023-06-22T11:09:09;10.52;;;9.50;;
9834;SDS011;69850;50.942;13.748;2023-06-22T11:12:30;11.15;;;9.98;;
9834;SDS011;69850;50.942;13.748;2023-06-22T11:15:50;11.15;;;10.05;;
9834;SDS011;69850;50.942;13.748;2023-06-22T11:19:11;11.13;;;10.02;;
9834;SDS011;69850;50.942;13.748;2023-06-22T11:22:32;11.13;;;9.65;;
9834;SDS011;69850;50.942;13.748;2023-06-22T11:25:54;13.45;;;10.23;;
9834;SDS011;69850;50.942;13.748;2023-06-22T11:29:14;12.38;;;10.40;;
9834;SDS011;69850;50.942;13.748;2023-06-22T11:32:36;10.45;;;9.45;;
9834;SDS011;69850;50.942;13.748;2023-06-22T11:35:57;11.15;;;10.00;;
9834;SDS011;69850;50.942;13.748;2023-06-22T11:39:17;11.05;;;9.95;;
9834;SDS011;69850;50.942;13.748;2023-06-22T11:42:38;14.45;;;10.00;;
9834;SDS011;69850;50.942;13.748;2023-06-22T11:45:59;11.73;;;10.52;;
9834;SDS011;69850;50.942;13.748;2023-06-22T11:49:25;11.57;;;9.77;;
9834;SDS011;69850;50.942;13.748;2023-06-22T11:52:46;10.75;;;9.65;;
9834;SDS011;69850;50.942;13.748;2023-06-22T11:56:06;12.20;;;9.40;;
9834;SDS011;69850;50.942;13.748;2023-06-22T11:59:27;10.55;;;9.40;;
9834;SDS011;69850;50.942;13.748;2023-06-22T12:02:47;11.13;;;8.77;;
9834;SDS011;69850;50.942;13.748;2023-06-22T12:06:08;11.65;;;10.45;;
9834;SDS011;69850;50.942;13.748;2023-06-22T12:09:29;11.80;;;9.90;;
9834;SDS011;69850;50.942;13.748;2023-06-22T12:12:49;10.82;;;9.68;;
9834;SDS011;69850;50.942;13.748;2023-06-22T12:16:10;10.43;;;9.40;;
9834;SDS011;69850;50.942;13.748;2023-06-22T12:19:32;13.55;;;9.65;;
9834;SDS011;69850;50.942;13.748;2023-06-22T12:22:52;11.05;;;9.93;;
9834;SDS011;69850;50.942;13.748;2023-06-22T12:26:15;11.02;;;9.88;;
9834;SDS011;69850;50.942;13.748;2023-06-22T12:29:36;13.20;;;9.82;;
9834;SDS011;69850;50.942;13.748;2023-06-22T12:32:56;12.73;;;9.60;;
9834;SDS011;69850;50.942;13.748;2023-06-22T12:36:17;10.75;;;9.68;;
9834;SDS011;69850;50.942;13.748;2023-06-22T12:39:39;13.05;;;10.07;;
9834;SDS011;69850;50.942;13.748;2023-06-22T12:43:00;11.85;;;10.13;;
9834;SDS011;69850;50.942;13.748;2023-06-22T12:46:22;11.88;;;9.85;;
9834;SDS011;69850;50.942;13.748;2023-06-22T12:49:42;11.38;;;10.23;;
9834;SDS011;69850;50.942;13.748;2023-06-22T12:53:03;10.45;;;9.02;;
9834;SDS011;69850;50.942;13.748;2023-06-22T12:56:24;10.52;;;9.35;;
9834;SDS011;69850;50.942;13.748;2023-06-22T12:59:45;12.57;;;9.15;;
9834;SDS011;69850;50.942;13.748;2023-06-22T13:03:05;10.88;;;9.80;;
9834;SDS011;69850;50.942;13.748;2023-06-22T13:06:26;13.30;;;9.57;;
9834;SDS011;69850;50.942;13.748;2023-06-22T13:09:47;11.60;;;9.35;;
9834;SDS011;69850;50.942;13.748;2023-06-22T13:13:11;11.98;;;9.48;;
9834;SDS011;69850;50.942;13.748;2023-06-22T13:16:32;13.68;;;9.57;;
9834;SDS011;69850;50.942;13.748;2023-06-22T13:19:52;16.45;;;9.57;;
9834;SDS011;69850;50.942;13.748;2023-06-22T13:23:13;12.00;;;8.57;;
9834;SDS011;69850;50.942;13.748;2023-06-22T13:26:33;10.52;;;9.00;;
9834;SDS011;69850;50.942;13.748;2023-06-22T13:29:54;9.75;;;8.75;;
9834;SDS011;69850;50.942;13.748;2023-06-22T13:33:15;11.27;;;8.48;;
9834;SDS011;69850;50.942;13.748;2023-06-22T13:36:35;11.00;;;8.90;;
9834;SDS011;69850;50.942;13.748;2023-06-22T13:39:56;9.55;;;8.55;;
9834;SDS011;69850;50.942;13.748;2023-06-22T13:43:19;8.98;;;8.07;;
9834;SDS011;69850;50.942;13.748;2023-06-22T13:46:40;9.07;;;8.13;;
9834;SDS011;69850;50.942;13.748;2023-06-22T13:50:00;9.00;;;8.10;;
9834;SDS011;69850;50.942;13.748;2023-06-22T13:53:21;9.95;;;9.00;;
9834;SDS011;69850;50.942;13.748;2023-06-22T13:56:41;11.52;;;8.27;;
9834;SDS011;69850;50.942;13.748;2023-06-22T14:00:02;9.45;;;8.45;;
9834;SDS011;69850;50.942;13.748;2023-06-22T14:03:31;11.02;;;8.63;;
9834;SDS011;69850;50.942;13.748;2023-06-22T14:06:52;12.82;;;8.48;;
9834;SDS011;69850;50.942;13.748;2023-06-22T14:10:13;10.18;;;8.32;;
9834;SDS011;69850;50.942;13.748;2023-06-22T14:13:33;10.68;;;8.55;;
9834;SDS011;69850;50.942;13.748;2023-06-22T14:16:55;9.35;;;8.35;;
9834;SDS011;69850;50.942;13.748;2023-06-22T14:20:16;12.70;;;8.85;;
9834;SDS011;69850;50.942;13.748;2023-06-22T14:23:37;9.43;;;8.50;;
9834;SDS011;69850;50.942;13.748;2023-06-22T14:26:58;10.32;;;8.60;;
9834;SDS011;69850;50.942;13.748;2023-06-22T14:30:19;9.70;;;8.45;;
9834;SDS011;69850;50.942;13.748;2023-06-22T14:33:39;9.55;;;8.45;;
9834;SDS011;69850;50.942;13.748;2023-06-22T14:37:00;10.23;;;8.70;;
9834;SDS011;69850;50.942;13.748;2023-06-22T14:40:21;10.30;;;9.18;;
9834;SDS011;69850;50.942;13.748;2023-06-22T14:43:44;10.98;;;9.20;;
9834;SDS011;69850;50.942;13.748;2023-06-22T14:47:07;9.43;;;8.43;;
9834;SDS011;69850;50.942;13.748;2023-06-22T14:50:27;10.13;;;8.68;;
9834;SDS011;69850;50.942;13.748;2023-06-22T14:53:48;10.57;;;8.88;;
9834;SDS011;69850;50.942;13.748;2023-06-22T14:57:09;9.50;;;8.20;;
9834;SDS011;69850;50.942;13.748;2023-06-22T15:00:29;13.10;;;9.30;;
9834;SDS011;69850;50.942;13.748;2023-06-22T15:03:50;9.70;;;8.68;;
9834;SDS011;69850;50.942;13.748;2023-06-22T15:07:10;9.00;;;8.10;;
9834;SDS011;69850;50.942;13.748;2023-06-22T15:10:31;9.25;;;7.78;;
9834;SDS011;69850;50.942;13.748;2023-06-22T15:13:52;9.38;;;8.48;;
9834;SDS011;69850;50.942;13.748;2023-06-22T15:17:12;9.65;;;8.70;;
9834;SDS011;69850;50.942;13.748;2023-06-22T15:20:34;10.50;;;8.52;;
9834;SDS011;69850;50.942;13.748;2023-06-22T15:23:54;10.38;;;8.45;;
9834;SDS011;69850;50.942;13.748;2023-06-22T15:27:15;9.70;;;8.77;;
9834;SDS011;69850;50.942;13.748;2023-06-22T15:30:36;11.55;;;8.68;;
9834;SDS011;69850;50.942;13.748;2023-06-22T15:33:56;13.15;;;8.82;;
9834;SDS011;69850;50.942;13.748;2023-06-22T15:37:17;12.02;;;8.85;;
9834;SDS011;69850;50.942;13.748;2023-06-22T15:40:38;9.98;;;8.73;;
9834;SDS011;69850;50.942;13.748;2023-06-22T15:43:59;10.82;;;7.88;;
9834;SDS011;69850;50.942;13.748;2023-06-22T15:47:20;10.68;;;9.68;;
9834;SDS011;69850;50.942;13.748;2023-06-22T15:50:42;11.98;;;9.90;;
9834;SDS011;69850;50.942;13.748;2023-06-22T15:54:03;10.98;;;9.85;;
9834;SDS011;69850;50.942;13.748;2023-06-22T15:57:24;10.85;;;8.90;;
9834;SDS011;69850;50.942;13.748;2023-06-22T16:00:46;10.45;;;8.90;;
9834;SDS011;69850;50.942;13.748;2023-06-22T16:04:08;9.43;;;8.07;;
9834;SDS011;69850;50.942;13.748;2023-06-22T16:07:29;10.63;;;9.52;;
9834;SDS011;69850;50.942;13.748;2023-06-22T16:10:50;10.13;;;8.40;;
9834;SDS011;69850;50.942;13.748;2023-06-22T16:14:10;9.63;;;8.38;;
9834;SDS011;69850;50.942;13.748;2023-06-22T16:17:31;9.70;;;8.70;;
9834;SDS011;69850;50.942;13.748;2023-06-22T16:20:51;10.02;;;9.02;;
9834;SDS011;69850;50.942;13.748;2023-06-22T16:24:12;11.45;;;8.95;;
9834;SDS011;69850;50.942;13.748;2023-06-22T16:27:32;10.63;;;9.23;;
9834;SDS011;69850;50.942;13.748;2023-06-22T16:30:53;10.80;;;9.10;;
9834;SDS011;69850;50.942;13.748;2023-06-22T16:34:14;9.77;;;8.73;;
9834;SDS011;69850;50.942;13.748;2023-06-22T16:37:35;11.07;;;9.15;;
9834;SDS011;69850;50.942;13.748;2023-06-22T16:40:55;9.60;;;8.70;;
9834;SDS011;69850;50.942;13.748;2023-06-22T16:44:16;10.05;;;8.90;;
9834;SDS011;69850;50.942;13.748;2023-06-22T16:47:36;10.13;;;8.60;;
9834;SDS011;69850;50.942;13.748;2023-06-22T16:50:57;9.55;;;8.65;;
9834;SDS011;69850;50.942;13.748;2023-06-22T16:54:19;9.68;;;8.60;;
9834;SDS011;69850;50.942;13.748;2023-06-22T16:57:40;9.20;;;8.30;;
9834;SDS011;69850;50.942;13.748;2023-06-22T17:01:01;14.68;;;9.15;;
9834;SDS011;69850;50.942;13.748;2023-06-22T17:04:23;8.48;;;7.68;;
9834;SDS011;69850;50.942;13.748;2023-06-22T17:07:48;10.57;;;8.40;;
9834;SDS011;69850;50.942;13.748;2023-06-22T17:11:12;9.60;;;8.30;;
9834;SDS011;69850;50.942;13.748;2023-06-22T17:14:33;11.82;;;8.35;;
9834;SDS011;69850;50.942;13.748;2023-06-22T17:17:53;8.75;;;7.90;;
9834;SDS011;69850;50.942;13.748;2023-06-22T17:21:20;9.27;;;8.20;;
9834;SDS011;69850;50.942;13.748;2023-06-22T17:24:41;10.70;;;8.27;;
9834;SDS011;69850;50.942;13.748;2023-06-22T17:28:02;9.55;;;8.50;;
9834;SDS011;69850;50.942;13.748;2023-06-22T17:31:23;9.35;;;8.45;;
9834;SDS011;69850;50.942;13.748;2023-06-22T17:34:44;9.65;;;8.63;;
9834;SDS011;69850;50.942;13.748;2023-06-22T17:38:04;11.90;;;8.85;;
9834;SDS011;69850;50.942;13.748;2023-06-22T17:41:32;10.93;;;8.07;;
9834;SDS011;69850;50.942;13.748;2023-06-22T17:44:58;12.40;;;8.73;;
9834;SDS011;69850;50.942;13.748;2023-06-22T17:48:20;9.88;;;8.80;;
9834;SDS011;69850;50.942;13.748;2023-06-22T17:51:42;9.60;;;8.70;;
9834;SDS011;69850;50.942;13.748;2023-06-22T17:55:03;11.82;;;10.40;;
9834;SDS011;69850;50.942;13.748;2023-06-22T17:58:24;14.05;;;11.85;;
9834;SDS011;69850;50.942;13.748;2023-06-22T18:01:44;14.18;;;12.48;;
9834;SDS011;69850;50.942;13.748;2023-06-22T18:05:05;14.10;;;11.60;;
9834;SDS011;69850;50.942;13.748;2023-06-22T18:08:26;17.65;;;12.48;;
9834;SDS011;69850;50.942;13.748;2023-06-22T18:11:48;17.00;;;12.68;;
9834;SDS011;69850;50.942;13.748;2023-06-22T18:15:10;18.77;;;12.82;;
9834;SDS011;69850;50.942;13.748;2023-06-22T18:18:31;16.58;;;12.88;;
9834;SDS011;69850;50.942;13.748;2023-06-22T18:21:53;18.55;;;13.40;;
9834;SDS011;69850;50.942;13.748;2023-06-22T18:25:13;16.35;;;12.88;;
9834;SDS011;69850;50.942;13.748;2023-06-22T18:28:36;18.48;;;12.70;;
9834;SDS011;69850;50.942;13.748;2023-06-22T18:31:57;15.52;;;12.80;;
9834;SDS011;69850;50.942;13.748;2023-06-22T18:35:18;15.50;;;12.75;;
9834;SDS011;69850;50.942;13.748;2023-06-22T18:38:42;19.55;;;13.57;;
9834;SDS011;69850;50.942;13.748;2023-06-22T18:42:03;15.82;;;12.65;;
9834;SDS011;69850;50.942;13.748;2023-06-22T18:45:25;18.55;;;14.15;;
9834;SDS011;69850;50.942;13.748;2023-06-22T18:48:47;19.50;;;15.48;;
9834;SDS011;69850;50.942;13.748;2023-06-22T18:55:34;15.32;;;13.65;;
9834;SDS011;69850;50.942;13.748;2023-06-22T18:58:56;16.08;;;14.38;;
9834;SDS011;69850;50.942;13.748;2023-06-22T19:05:49;15.30;;;13.80;;
9834;SDS011;69850;50.942;13.748;2023-06-22T19:09:13;16.00;;;14.30;;
9834;SDS011;69850;50.942;13.748;2023-06-22T19:12:35;16.65;;;14.07;;
9834;SDS011;69850;50.942;13.748;2023-06-22T19:16:03;15.80;;;14.20;;
9834;SDS011;69850;50.942;13.748;2023-06-22T19:19:26;18.20;;;14.60;;
9834;SDS011;69850;50.942;13.748;2023-06-22T19:22:53;19.00;;;13.85;;
9834;SDS011;69850;50.942;13.748;2023-06-22T19:26:18;18.27;;;15.50;;
9834;SDS011;69850;50.942;13.748;2023-06-22T19:29:39;18.35;;;15.10;;
9834;SDS011;69850;50.942;13.748;2023-06-22T19:32:59;18.65;;;16.75;;
9834;SDS011;69850;50.942;13.748;2023-06-22T19:36:22;18.70;;;15.60;;
9834;SDS011;69850;50.942;13.748;2023-06-22T19:39:43;18.98;;;14.80;;
9834;SDS011;69850;50.942;13.748;2023-06-22T19:43:03;16.70;;;15.00;;
9834;SDS011;69850;50.942;13.748;2023-06-22T19:46:29;17.70;;;15.15;;
9834;SDS011;69850;50.942;13.748;2023-06-22T19:49:58;17.25;;;14.95;;
9834;SDS011;69850;50.942;13.748;2023-06-22T19:53:19;20.80;;;14.80;;
9834;SDS011;69850;50.942;13.748;2023-06-22T19:56:40;16.77;;;15.00;;
9834;SDS011;69850;50.942;13.748;2023-06-22T20:00:00;22.58;;;15.18;;
9834;SDS011;69850;50.942;13.748;2023-06-22T20:03:30;16.83;;;15.00;;